Time;durP1;ratioP1;P1;durP2;ratioP2;P2;SDS_P1;SDS_P2;PMS_P1;PMS_P2;Temp;Humidity;BMP_temperature;BMP_pressure;BME280_temperature;BME280_humidity;BME280_pressure;Samples;Min_cycle;Max_cycle;Signal;HPM_P1;HPM_P2
2022/12/30 00:01:21;;;;;;;11.93;1.90;;;11.30;52.60;;;;;;5043203;28;20064;-44
2022/12/30 00:03:50;;;;;;;6.65;1.65;;;11.30;52.10;;;;;;5041991;28;20060;-48
2022/12/30 00:06:19;;;;;;;12.13;2.10;;;11.30;52.10;;;;;;5042067;28;20053;-45
2022/12/30 00:08:48;;;;;;;15.82;2.17;;;11.30;52.10;;;;;;5039998;28;20501;-46
2022/12/30 00:11:17;;;;;;;10.70;2.13;;;11.20;52.10;;;;;;5041830;28;20049;-44
2022/12/30 00:33:32;;;;;;;9.27;1.80;;;11.10;52.30;;;;;;5048243;28;20071;-44
2022/12/30 00:36:01;;;;;;;16.38;1.95;;;11.10;52.30;;;;;;5041394;28;20060;-46
2022/12/30 00:38:31;;;;;;;12.77;2.40;;;11.10;52.30;;;;;;5041103;28;20052;-45
2022/12/30 00:43:43;;;;;;;10.18;1.85;;;11.10;52.40;;;;;;5048157;28;20373;-48
2022/12/30 00:46:12;;;;;;;8.63;2.13;;;11.10;52.40;;;;;;5042066;28;20064;-45
2022/12/30 00:56:55;;;;;;;11.10;1.60;;;11.00;52.30;;;;;;5047183;28;20059;-45
2022/12/30 00:59:22;;;;;;;12.75;2.08;;;11.00;52.30;;;;;;5041228;28;20060;-44
2022/12/30 01:01:50;;;;;;;7.30;1.70;;;11.00;52.30;;;;;;5041856;28;20064;-46
2022/12/30 01:04:17;;;;;;;11.32;1.98;;;11.00;52.40;;;;;;5042262;28;20052;-46
2022/12/30 01:06:45;;;;;;;6.68;1.52;;;11.00;52.40;;;;;;5042066;28;20052;-48
2022/12/30 01:09:13;;;;;;;12.80;2.10;;;11.00;52.40;;;;;;5039737;28;20052;-48
2022/12/30 01:11:40;;;;;;;11.60;1.95;;;10.90;52.30;;;;;;5039834;28;20059;-46
2022/12/30 01:14:10;;;;;;;11.85;2.13;;;10.90;52.30;;;;;;5041586;28;20060;-44
2022/12/30 01:16:37;;;;;;;14.05;2.20;;;10.90;52.40;;;;;;5041244;28;20057;-46
2022/12/30 01:19:05;;;;;;;11.13;2.00;;;10.90;52.40;;;;;;5039632;28;20136;-45
2022/12/30 01:21:32;;;;;;;10.70;1.92;;;10.80;52.40;;;;;;5041208;28;20377;-44
2022/12/30 01:24:01;;;;;;;9.68;1.90;;;10.80;52.40;;;;;;5039472;28;20568;-45
2022/12/30 01:26:28;;;;;;;10.75;1.80;;;10.80;52.40;;;;;;5040404;28;20052;-45
2022/12/30 01:28:55;;;;;;;7.28;1.25;;;10.80;52.40;;;;;;5041621;28;20059;-46
2022/12/30 01:31:23;;;;;;;11.90;1.73;;;10.70;52.40;;;;;;5041147;28;20057;-44
2022/12/30 01:33:50;;;;;;;7.97;1.92;;;10.70;52.40;;;;;;5040980;28;20061;-48
2022/12/30 01:36:17;;;;;;;10.23;1.92;;;10.70;52.40;;;;;;5041534;28;20069;-49
2022/12/30 01:38:44;;;;;;;12.75;2.83;;;10.70;52.40;;;;;;5039727;28;20052;-44
2022/12/30 01:41:13;;;;;;;13.60;2.30;;;10.70;52.40;;;;;;5040912;28;20060;-45
2022/12/30 01:43:46;;;;;;;8.48;1.70;;;10.60;52.40;;;;;;5040805;28;20064;-45
2022/12/30 01:46:19;;;;;;;7.43;1.63;;;10.60;52.40;;;;;;5041215;28;20053;-44
2022/12/30 01:48:47;;;;;;;15.15;2.05;;;10.60;52.40;;;;;;5040105;28;20489;-44
2022/12/30 01:51:19;;;;;;;13.32;1.98;;;10.60;52.40;;;;;;5040268;28;20052;-42
2022/12/30 01:53:51;;;;;;;9.80;2.10;;;10.60;52.50;;;;;;5039033;28;20405;-43
2022/12/30 01:56:26;;;;;;;11.60;2.28;;;10.50;52.50;;;;;;5041377;28;20048;-45
2022/12/30 01:58:56;;;;;;;11.07;1.70;;;10.50;52.50;;;;;;5037704;28;20501;-45
2022/12/30 02:01:24;;;;;;;11.95;2.00;;;10.50;52.60;;;;;;5041835;28;20063;-43
2022/12/30 02:03:59;;;;;;;14.93;2.42;;;10.40;52.60;;;;;;5040456;28;20060;-44
2022/12/30 02:06:35;;;;;;;9.30;1.60;;;10.40;52.60;;;;;;5039920;28;20413;-46
2022/12/30 02:09:03;;;;;;;13.18;2.70;;;10.40;52.70;;;;;;5038618;28;20485;-46
2022/12/30 02:11:34;;;;;;;12.27;2.10;;;10.40;52.80;;;;;;5041422;28;20053;-42
2022/12/30 02:14:02;;;;;;;11.60;1.77;;;10.40;52.90;;;;;;5040768;28;20056;-44
2022/12/30 02:16:41;;;;;;;9.98;1.90;;;10.40;52.90;;;;;;5040752;28;20052;-42
2022/12/30 02:19:39;;;;;;;11.20;2.35;;;10.30;52.90;;;;;;5040343;28;20060;-46
2022/12/30 02:22:15;;;;;;;11.50;2.17;;;10.30;53.00;;;;;;5040573;28;20418;-47
2022/12/30 02:25:18;;;;;;;14.55;2.15;;;10.40;53.00;;;;;;5038532;28;20053;-46
2022/12/30 02:28:14;;;;;;;10.82;2.25;;;10.30;53.00;;;;;;5040847;28;20045;-45
2022/12/30 02:31:16;;;;;;;15.93;2.78;;;10.30;53.00;;;;;;5039842;28;20076;-44
2022/12/30 02:33:50;;;;;;;10.10;1.77;;;10.30;53.10;;;;;;5045149;28;20048;-44
2022/12/30 02:36:23;;;;;;;10.40;1.83;;;10.30;53.10;;;;;;5043703;28;20057;-43
2022/12/30 02:38:56;;;;;;;10.18;1.92;;;10.20;53.10;;;;;;5041049;28;20064;-41
2022/12/30 02:44:37;;;;;;;9.23;1.52;;;10.20;53.20;;;;;;5050950;28;20064;-46
2022/12/30 02:47:11;;;;;;;8.20;1.77;;;10.20;53.20;;;;;;5043543;28;20044;-45
2022/12/30 02:49:41;;;;;;;10.45;2.10;;;10.20;53.20;;;;;;5044731;28;20052;-42
2022/12/30 02:52:14;;;;;;;9.65;2.00;;;10.20;53.20;;;;;;5043928;28;20060;-45
2022/12/30 02:54:42;;;;;;;11.23;1.70;;;10.20;53.20;;;;;;5040910;28;20040;-44
2022/12/30 02:57:24;;;;;;;9.63;1.85;;;10.20;53.20;;;;;;5044178;28;21059;-43
2022/12/30 03:05:48;;;;;;;10.05;2.42;;;10.10;53.20;;;;;;5050284;28;20056;-47
2022/12/30 03:08:25;;;;;;;9.35;1.92;;;10.10;53.20;;;;;;5043243;28;20060;-46
2022/12/30 03:11:13;;;;;;;9.43;1.75;;;10.10;53.30;;;;;;5043924;28;20409;-49
2022/12/30 03:13:57;;;;;;;7.60;2.20;;;10.10;53.30;;;;;;5043795;28;20052;-49
2022/12/30 03:16:29;;;;;;;10.75;1.70;;;10.10;53.30;;;;;;5043695;28;20057;-48
2022/12/30 03:19:03;;;;;;;12.93;1.80;;;10.10;53.30;;;;;;5042035;28;20052;-46
2022/12/30 03:21:33;;;;;;;10.52;1.48;;;10.00;53.30;;;;;;5043845;28;20408;-46
2022/12/30 03:27:04;;;;;;;11.02;2.50;;;10.00;53.40;;;;;;5044169;28;20075;-45
2022/12/30 03:29:36;;;;;;;17.23;2.00;;;10.00;53.40;;;;;;5043321;28;20405;-48
2022/12/30 03:32:05;;;;;;;10.57;1.70;;;10.00;53.40;;;;;;5042702;28;20465;-48
2022/12/30 03:34:34;;;;;;;12.77;2.40;;;9.90;53.30;;;;;;5042340;28;20057;-45
2022/12/30 03:37:07;;;;;;;13.63;2.08;;;9.90;53.40;;;;;;5044076;28;20049;-45
2022/12/30 03:39:40;;;;;;;7.83;1.57;;;9.90;53.40;;;;;;5041605;28;20049;-43
2022/12/30 03:42:08;;;;;;;9.60;1.42;;;9.90;53.50;;;;;;5041754;28;21025;-47
2022/12/30 03:44:36;;;;;;;9.75;2.00;;;9.90;53.50;;;;;;5040372;28;20056;-45
2022/12/30 03:47:03;;;;;;;8.38;1.63;;;9.80;53.40;;;;;;5041821;28;20057;-43
2022/12/30 03:49:31;;;;;;;8.18;1.60;;;9.80;53.40;;;;;;5041641;28;20056;-42
2022/12/30 03:51:59;;;;;;;9.25;1.80;;;9.80;53.30;;;;;;5041773;28;20057;-46
2022/12/30 03:54:26;;;;;;;14.73;2.42;;;9.80;53.30;;;;;;5041196;28;20045;-43
2022/12/30 03:56:54;;;;;;;10.98;2.13;;;9.80;53.30;;;;;;5041418;28;20052;-41
2022/12/30 03:59:21;;;;;;;13.63;2.47;;;9.70;53.30;;;;;;5041301;28;20505;-43
2022/12/30 04:01:49;;;;;;;12.27;2.78;;;9.70;53.20;;;;;;5044540;28;21156;-44
2022/12/30 04:04:19;;;;;;;10.90;1.88;;;9.60;53.20;;;;;;5043966;28;20652;-43
2022/12/30 04:06:46;;;;;;;10.05;1.92;;;9.60;53.20;;;;;;5039031;28;20060;-48
2022/12/30 04:09:14;;;;;;;5.95;1.75;;;9.60;53.20;;;;;;5040045;28;20057;-43
2022/12/30 04:11:42;;;;;;;12.10;2.28;;;9.60;53.20;;;;;;5042619;28;20053;-46
2022/12/30 04:14:09;;;;;;;12.90;2.00;;;9.50;53.20;;;;;;5043350;28;20060;-45
2022/12/30 04:16:36;;;;;;;7.90;1.73;;;9.50;53.20;;;;;;5042263;28;20052;-47
2022/12/30 04:19:04;;;;;;;11.05;1.45;;;9.40;53.20;;;;;;5041190;28;20071;-43
2022/12/30 04:21:31;;;;;;;10.60;2.17;;;9.40;53.20;;;;;;5038678;28;20062;-43
2022/12/30 04:23:58;;;;;;;13.15;2.40;;;9.40;53.20;;;;;;5041692;28;20444;-44
2022/12/30 04:26:27;;;;;;;7.90;1.80;;;9.40;53.30;;;;;;5040566;28;20492;-42
2022/12/30 04:28:54;;;;;;;19.98;6.70;;;9.30;53.30;;;;;;5043051;28;20064;-45
2022/12/30 04:31:22;;;;;;;56.90;23.73;;;9.30;53.40;;;;;;5041772;28;20048;-45
2022/12/30 04:33:49;;;;;;;22.33;7.78;;;9.20;53.50;;;;;;5042406;28;20049;-44
2022/12/30 04:36:17;;;;;;;14.45;3.55;;;9.20;53.60;;;;;;5040020;28;20052;-43
2022/12/30 04:38:44;;;;;;;9.73;2.40;;;9.20;53.70;;;;;;5041800;28;20061;-42
2022/12/30 04:41:12;;;;;;;10.32;2.30;;;9.20;53.80;;;;;;5042638;28;20057;-43
2022/12/30 04:43:41;;;;;;;6.15;1.60;;;9.10;53.90;;;;;;5041258;28;20053;-44
2022/12/30 04:46:08;;;;;;;6.97;1.70;;;9.10;53.90;;;;;;5041244;28;20500;-43
2022/12/30 04:48:35;;;;;;;10.18;1.88;;;9.10;53.90;;;;;;5042057;28;20056;-43
2022/12/30 04:51:03;;;;;;;10.00;2.10;;;9.10;54.00;;;;;;5038125;28;20064;-42
2022/12/30 04:53:30;;;;;;;12.50;2.03;;;9.10;54.00;;;;;;5039487;28;20057;-45
2022/12/30 04:55:57;;;;;;;14.68;2.25;;;9.00;54.10;;;;;;5039143;28;20045;-43
2022/12/30 04:58:25;;;;;;;15.30;2.40;;;9.00;54.30;;;;;;5039918;28;21092;-45
2022/12/30 05:00:54;;;;;;;9.55;1.90;;;9.00;54.40;;;;;;5040332;28;20053;-41
2022/12/30 05:03:21;;;;;;;13.57;2.97;;;9.00;54.60;;;;;;5039545;28;20428;-48
2022/12/30 05:05:48;;;;;;;11.18;1.90;;;8.90;54.80;;;;;;5041278;28;20123;-42
2022/12/30 05:08:16;;;;;;;9.40;1.88;;;8.90;54.80;;;;;;5039872;28;20516;-44
2022/12/30 05:10:43;;;;;;;13.00;2.05;;;8.90;55.00;;;;;;5040843;28;20049;-45
2022/12/30 05:13:10;;;;;;;14.07;2.45;;;8.90;55.10;;;;;;5040746;28;20049;-46
2022/12/30 05:15:38;;;;;;;12.55;2.30;;;8.90;55.30;;;;;;5039828;28;20049;-43
2022/12/30 05:18:06;;;;;;;15.35;2.22;;;8.90;55.30;;;;;;5034838;28;21061;-43
2022/12/30 05:20:33;;;;;;;17.05;3.05;;;8.90;55.50;;;;;;5041417;28;20052;-46
2022/12/30 05:26:13;;;;;;;18.08;2.63;;;8.90;55.60;;;;;;5039321;28;20060;-46
2022/12/30 05:28:38;;;;;;;12.88;2.60;;;8.90;55.90;;;;;;5038567;28;20059;-44
2022/12/30 05:31:05;;;;;;;12.05;2.92;;;8.80;56.00;;;;;;5041079;28;20059;-47
2022/12/30 05:33:34;;;;;;;19.33;3.95;;;8.90;56.10;;;;;;5041099;28;20061;-42
2022/12/30 05:36:01;;;;;;;10.90;2.30;;;8.90;56.20;;;;;;5039828;28;20071;-47
2022/12/30 05:38:28;;;;;;;12.30;2.08;;;8.90;56.30;;;;;;5038743;28;20528;-43
2022/12/30 05:40:55;;;;;;;12.68;2.20;;;8.90;56.30;;;;;;5039574;28;20772;-46
2022/12/30 05:43:23;;;;;;;16.52;2.67;;;8.90;56.40;;;;;;5040998;28;20045;-47
2022/12/30 05:45:50;;;;;;;11.85;2.00;;;8.90;56.40;;;;;;5040696;28;20053;-46
2022/12/30 05:48:17;;;;;;;10.68;1.92;;;8.90;56.50;;;;;;5040371;28;20040;-46
2022/12/30 05:50:48;;;;;;;16.42;2.03;;;9.00;56.50;;;;;;5039950;28;20067;-44
2022/12/30 05:53:16;;;;;;;12.52;2.42;;;8.90;56.60;;;;;;5040638;28;20417;-43
2022/12/30 05:55:43;;;;;;;15.10;2.38;;;9.00;56.50;;;;;;5038182;28;20049;-43
2022/12/30 05:58:11;;;;;;;12.63;2.17;;;9.00;56.50;;;;;;5033354;28;20080;-44
2022/12/30 06:00:39;;;;;;;16.92;2.22;;;9.00;56.60;;;;;;5038234;28;20052;-45
2022/12/30 06:03:06;;;;;;;14.68;2.80;;;9.00;56.60;;;;;;5033072;28;20547;-45
2022/12/30 06:05:34;;;;;;;11.27;3.03;;;9.00;56.60;;;;;;5026189;28;20060;-42
2022/12/30 06:08:02;;;;;;;16.63;3.35;;;9.10;56.60;;;;;;5039105;28;20056;-46
2022/12/30 06:10:29;;;;;;;9.70;2.03;;;9.10;56.70;;;;;;5039054;28;20056;-43
2022/12/30 06:12:57;;;;;;;11.05;1.95;;;9.10;56.70;;;;;;5039542;28;20350;-44
2022/12/30 06:15:24;;;;;;;11.73;1.92;;;9.10;56.80;;;;;;5030026;28;20048;-44
2022/12/30 06:17:51;;;;;;;10.77;1.88;;;9.10;56.80;;;;;;5031498;28;20052;-49
2022/12/30 06:20:18;;;;;;;9.90;1.90;;;9.10;56.80;;;;;;5039957;28;20056;-44
2022/12/30 06:22:45;;;;;;;13.00;1.70;;;9.10;56.70;;;;;;5040197;28;20061;-44
2022/12/30 06:25:14;;;;;;;15.60;2.40;;;9.10;56.70;;;;;;5038691;28;20060;-44
2022/12/30 06:27:41;;;;;;;10.45;1.83;;;9.10;56.80;;;;;;5040048;28;20044;-43
2022/12/30 06:30:10;;;;;;;13.80;2.38;;;9.20;56.80;;;;;;5039234;28;20053;-44
2022/12/30 06:32:37;;;;;;;15.73;2.40;;;9.20;56.90;;;;;;5035156;28;20049;-47
2022/12/30 06:35:06;;;;;;;11.38;1.80;;;9.20;56.90;;;;;;5036928;28;20049;-47
2022/12/30 06:37:33;;;;;;;9.20;1.85;;;9.20;57.00;;;;;;5037313;28;20408;-42
2022/12/30 06:40:01;;;;;;;10.38;1.75;;;9.20;57.00;;;;;;5038261;28;20801;-47
2022/12/30 06:42:29;;;;;;;10.07;1.73;;;9.20;57.00;;;;;;5039297;28;20064;-42
2022/12/30 06:44:57;;;;;;;12.05;2.10;;;9.20;57.10;;;;;;5035466;28;20048;-46
2022/12/30 06:47:25;;;;;;;14.27;2.13;;;9.20;57.10;;;;;;5039763;28;20401;-45
2022/12/30 06:49:54;;;;;;;10.13;2.05;;;9.20;57.30;;;;;;5038968;28;20403;-44
2022/12/30 06:52:22;;;;;;;16.85;2.13;;;9.30;57.30;;;;;;5038191;28;20061;-43
2022/12/30 06:54:50;;;;;;;11.48;1.98;;;9.30;57.30;;;;;;5038705;28;20061;-44
2022/12/30 06:57:18;;;;;;;8.95;1.40;;;9.30;57.40;;;;;;5039164;28;20493;-43
2022/12/30 06:59:46;;;;;;;15.60;1.88;;;9.30;57.40;;;;;;5038080;28;20076;-46
2022/12/30 07:02:14;;;;;;;19.65;2.90;;;9.30;57.50;;;;;;5039383;28;20064;-43
2022/12/30 07:04:41;;;;;;;8.68;2.08;;;9.40;57.50;;;;;;5037623;28;20064;-43
2022/12/30 07:07:08;;;;;;;11.98;3.08;;;9.40;57.50;;;;;;5039511;28;20059;-44
2022/12/30 07:09:35;;;;;;;10.68;2.17;;;9.40;57.50;;;;;;5038985;28;20061;-43
2022/12/30 07:12:03;;;;;;;12.88;1.75;;;9.40;57.50;;;;;;5039637;28;20493;-45
2022/12/30 07:14:30;;;;;;;13.70;2.03;;;9.40;57.50;;;;;;5040310;28;20059;-43
2022/12/30 07:16:58;;;;;;;9.48;1.67;;;9.40;57.50;;;;;;5040122;28;20049;-43
2022/12/30 07:19:27;;;;;;;9.63;1.88;;;9.40;57.50;;;;;;5040867;28;20049;-45
2022/12/30 07:21:55;;;;;;;8.32;1.73;;;9.40;57.50;;;;;;5041918;28;20057;-43
2022/12/30 07:24:22;;;;;;;10.45;1.90;;;9.40;57.50;;;;;;5041117;28;20060;-43
2022/12/30 07:26:50;;;;;;;10.38;1.60;;;9.50;57.60;;;;;;5042770;28;20052;-46
2022/12/30 07:29:17;;;;;;;11.93;2.05;;;9.50;57.60;;;;;;5042978;28;20056;-43
2022/12/30 07:31:46;;;;;;;9.43;1.73;;;9.50;57.60;;;;;;5041210;28;20057;-44
2022/12/30 07:34:15;;;;;;;7.75;1.50;;;9.50;57.60;;;;;;5040710;28;20044;-47
2022/12/30 07:36:42;;;;;;;9.05;1.60;;;9.50;57.60;;;;;;5043727;28;20045;-42
2022/12/30 07:39:09;;;;;;;7.88;1.45;;;9.50;57.70;;;;;;5041604;28;20045;-44
2022/12/30 07:41:37;;;;;;;8.02;1.50;;;9.60;57.70;;;;;;5042383;28;20061;-41
2022/12/30 07:44:04;;;;;;;12.10;1.90;;;9.60;57.80;;;;;;5042589;28;20524;-42
2022/12/30 07:46:31;;;;;;;11.05;2.60;;;9.60;57.80;;;;;;5042806;28;20052;-43
2022/12/30 07:48:58;;;;;;;11.02;2.13;;;9.60;57.90;;;;;;5038497;28;20061;-44
2022/12/30 07:51:27;;;;;;;12.07;2.35;;;9.60;58.00;;;;;;5041943;28;20686;-46
2022/12/30 07:53:55;;;;;;;13.77;2.80;;;9.60;58.10;;;;;;5036156;28;20057;-43
2022/12/30 07:56:22;;;;;;;13.27;3.30;;;9.70;58.10;;;;;;5041699;28;20057;-42
2022/12/30 07:58:49;;;;;;;10.48;2.40;;;9.70;58.20;;;;;;5042532;28;20052;-47
2022/12/30 08:01:16;;;;;;;14.48;3.20;;;9.70;58.20;;;;;;5040476;28;20061;-45
2022/12/30 08:03:44;;;;;;;7.95;2.13;;;9.80;58.30;;;;;;5042829;28;20057;-44
2022/12/30 08:06:13;;;;;;;10.68;1.92;;;9.80;58.30;;;;;;5042112;28;20057;-44
2022/12/30 08:08:43;;;;;;;13.57;1.85;;;9.80;58.20;;;;;;5042049;28;20064;-44
2022/12/30 08:11:13;;;;;;;7.95;1.83;;;9.80;58.30;;;;;;5043489;28;20049;-45
2022/12/30 08:13:42;;;;;;;9.30;1.75;;;9.90;58.40;;;;;;5044164;28;20049;-44
2022/12/30 08:16:12;;;;;;;10.85;2.35;;;9.90;58.50;;;;;;5042531;28;20049;-42
2022/12/30 08:18:39;;;;;;;12.00;1.90;;;9.90;58.50;;;;;;5039821;28;20056;-45
2022/12/30 08:21:09;;;;;;;9.50;2.00;;;10.00;58.50;;;;;;5042653;28;20057;-45
2022/12/30 08:23:37;;;;;;;10.15;1.98;;;10.00;58.50;;;;;;5041314;28;20053;-46
2022/12/30 08:26:07;;;;;;;12.80;2.15;;;10.00;58.50;;;;;;5043811;28;20512;-46
2022/12/30 08:28:34;;;;;;;9.40;1.77;;;10.10;58.60;;;;;;5041512;28;20512;-43
2022/12/30 08:31:06;;;;;;;8.10;2.05;;;10.10;59.00;;;;;;5042691;28;20057;-44
2022/12/30 08:33:33;;;;;;;7.80;2.33;;;10.10;58.50;;;;;;5040073;28;20048;-42
2022/12/30 08:36:02;;;;;;;12.52;1.90;;;10.20;58.50;;;;;;5039556;28;20072;-43
2022/12/30 08:38:29;;;;;;;11.55;1.98;;;10.20;58.50;;;;;;5037860;28;20041;-45
2022/12/30 08:41:06;;;;;;;7.32;1.50;;;10.20;58.40;;;;;;5038379;28;20397;-45
2022/12/30 08:43:33;;;;;;;10.23;1.52;;;10.30;58.50;;;;;;5041329;28;20056;-44
2022/12/30 08:46:01;;;;;;;5.38;1.70;;;10.30;58.80;;;;;;5036634;28;20057;-44
2022/12/30 08:48:28;;;;;;;16.10;2.00;;;10.40;58.40;;;;;;5039340;28;20057;-46
2022/12/30 08:50:56;;;;;;;9.77;1.67;;;10.40;58.30;;;;;;5042466;28;20060;-42
2022/12/30 08:53:23;;;;;;;12.07;1.55;;;10.50;58.30;;;;;;5037986;28;20049;-43
2022/12/30 08:55:59;;;;;;;14.02;2.40;;;10.50;58.20;;;;;;5041870;28;20493;-46
2022/12/30 08:58:28;;;;;;;7.35;1.73;;;10.50;58.20;;;;;;5040650;28;20065;-43
2022/12/30 09:00:55;;;;;;;9.90;1.73;;;10.50;58.10;;;;;;5037915;28;20485;-44
2022/12/30 09:03:22;;;;;;;7.63;1.80;;;10.60;58.00;;;;;;5038436;28;20049;-45
2022/12/30 09:05:52;;;;;;;14.85;2.08;;;10.60;57.90;;;;;;5039198;28;20060;-44
2022/12/30 09:08:19;;;;;;;11.88;2.15;;;10.60;57.90;;;;;;5040088;28;20057;-45
2022/12/30 09:10:56;;;;;;;7.82;1.70;;;10.70;57.90;;;;;;5040289;28;20068;-49
2022/12/30 09:13:23;;;;;;;7.28;1.13;;;10.70;57.80;;;;;;5041860;28;20049;-46
2022/12/30 09:15:52;;;;;;;10.07;1.90;;;10.70;57.70;;;;;;5036622;28;20044;-43
2022/12/30 09:18:20;;;;;;;14.23;2.35;;;10.70;57.60;;;;;;5041771;28;20059;-46
2022/12/30 09:20:47;;;;;;;6.18;1.35;;;10.80;57.60;;;;;;5040602;28;20057;-45
2022/12/30 09:23:15;;;;;;;9.23;1.75;;;10.90;57.60;;;;;;5040844;28;20049;-45
2022/12/30 09:25:42;;;;;;;6.47;1.80;;;10.80;57.40;;;;;;5038265;28;20072;-44
2022/12/30 09:28:09;;;;;;;7.97;1.50;;;10.90;57.40;;;;;;5040293;28;20049;-44
2022/12/30 09:30:37;;;;;;;8.32;1.60;;;10.90;57.30;;;;;;5040035;28;20052;-42
2022/12/30 09:33:06;;;;;;;7.75;1.65;;;10.90;57.20;;;;;;5039984;28;20075;-45
2022/12/30 09:35:33;;;;;;;7.45;1.45;;;11.00;57.30;;;;;;5040452;28;20044;-44
2022/12/30 09:38:01;;;;;;;10.38;1.70;;;11.00;57.30;;;;;;5040894;28;20056;-47
2022/12/30 09:40:43;;;;;;;6.78;1.58;;;11.00;57.20;;;;;;5039396;28;20408;-42
2022/12/30 09:43:15;;;;;;;11.70;1.83;;;11.10;57.10;;;;;;5041858;28;20060;-43
2022/12/30 09:45:53;;;;;;;10.68;1.80;;;11.10;57.00;;;;;;5037627;28;20049;-45
2022/12/30 09:48:27;;;;;;;8.85;1.52;;;11.10;56.90;;;;;;5039483;28;20052;-45
2022/12/30 09:50:58;;;;;;;7.32;1.52;;;11.20;56.80;;;;;;5039336;28;20049;-47
2022/12/30 09:53:37;;;;;;;9.27;1.50;;;11.20;56.80;;;;;;5040458;28;20057;-43
2022/12/30 09:56:11;;;;;;;8.27;2.00;;;11.20;56.70;;;;;;5041392;28;20045;-48
2022/12/30 09:58:39;;;;;;;7.38;1.50;;;11.20;56.70;;;;;;5040930;28;20060;-44
2022/12/30 10:01:18;;;;;;;7.80;1.63;;;11.30;56.60;;;;;;5037236;28;20053;-46
2022/12/30 10:03:47;;;;;;;4.35;1.38;;;11.30;56.50;;;;;;5038738;28;20057;-41
2022/12/30 10:06:26;;;;;;;6.88;1.50;;;11.40;56.50;;;;;;5041475;28;20049;-45
2022/12/30 10:09:32;;;;;;;7.18;1.40;;;11.40;56.30;;;;;;5038842;28;20056;-43
2022/12/30 10:12:14;;;;;;;7.13;1.48;;;11.40;56.20;;;;;;5040992;28;20056;-45
2022/12/30 10:14:53;;;;;;;11.23;1.70;;;11.40;56.00;;;;;;5040975;28;20045;-43
2022/12/30 10:17:31;;;;;;;9.23;1.77;;;11.50;56.00;;;;;;5041004;28;20484;-44
2022/12/30 10:20:09;;;;;;;8.95;1.70;;;11.50;55.80;;;;;;5039590;28;20067;-46
2022/12/30 10:22:44;;;;;;;6.43;1.83;;;11.50;55.70;;;;;;5041397;28;20061;-46
2022/12/30 10:25:22;;;;;;;9.90;1.85;;;11.50;55.70;;;;;;5039656;28;20060;-45
2022/12/30 10:27:53;;;;;;;9.75;1.83;;;11.50;55.60;;;;;;5041151;28;20053;-42
2022/12/30 10:30:23;;;;;;;6.38;1.42;;;11.50;55.70;;;;;;5039477;28;20416;-43
2022/12/30 10:32:54;;;;;;;8.18;1.60;;;11.50;55.70;;;;;;5040704;28;20053;-44
2022/12/30 10:35:24;;;;;;;9.63;1.45;;;11.50;55.60;;;;;;5040611;28;20063;-44
2022/12/30 10:37:57;;;;;;;12.52;1.92;;;11.50;55.50;;;;;;5040342;28;20060;-45
2022/12/30 10:40:34;;;;;;;8.38;1.75;;;11.50;55.90;;;;;;5038306;28;20055;-48
2022/12/30 10:43:17;;;;;;;11.98;1.58;;;11.50;55.30;;;;;;5040217;28;20057;-45
2022/12/30 10:46:05;;;;;;;8.48;1.92;;;11.50;55.30;;;;;;5040430;28;20052;-44
2022/12/30 10:48:56;;;;;;;5.38;1.73;;;11.60;55.30;;;;;;5040798;28;20057;-44
2022/12/30 10:51:26;;;;;;;9.00;1.80;;;11.60;55.20;;;;;;5037822;28;20048;-46
2022/12/30 10:53:54;;;;;;;5.00;1.15;;;11.60;55.20;;;;;;5038153;28;20489;-45
2022/12/30 10:56:24;;;;;;;5.15;1.55;;;11.60;55.20;;;;;;5043026;28;20393;-46
2022/12/30 10:58:54;;;;;;;8.85;1.73;;;11.60;55.10;;;;;;5043302;28;20079;-47
2022/12/30 11:01:24;;;;;;;11.32;1.45;;;11.60;55.20;;;;;;5045225;28;20057;-44
2022/12/30 11:03:56;;;;;;;6.20;1.98;;;11.60;55.10;;;;;;5040673;28;20507;-44
2022/12/30 11:06:27;;;;;;;9.13;1.70;;;11.60;55.20;;;;;;5043915;28;20493;-44
2022/12/30 11:09:15;;;;;;;5.03;1.25;;;11.60;55.10;;;;;;5043129;28;20056;-42
2022/12/30 11:14:43;;;;;;;6.30;1.20;;;11.70;55.10;;;;;;5050843;28;20397;-43
2022/12/30 11:17:21;;;;;;;5.55;1.30;;;11.70;55.20;;;;;;5044506;28;20412;-44
2022/12/30 11:19:51;;;;;;;6.80;1.30;;;11.70;55.10;;;;;;5041114;28;20052;-46
2022/12/30 11:22:21;;;;;;;5.88;1.35;;;11.70;55.10;;;;;;5044479;28;20048;-44
2022/12/30 11:24:57;;;;;;;9.50;1.70;;;11.70;54.90;;;;;;5043041;28;20068;-46
2022/12/30 11:27:35;;;;;;;7.25;1.58;;;11.70;54.80;;;;;;5044353;28;20057;-47
2022/12/30 11:30:04;;;;;;;7.80;1.67;;;11.80;54.90;;;;;;5042497;28;20053;-46
2022/12/30 11:32:32;;;;;;;6.10;1.40;;;11.80;54.80;;;;;;5040967;28;20049;-47
2022/12/30 11:34:59;;;;;;;7.35;1.38;;;11.80;54.80;;;;;;5043260;28;20057;-45
2022/12/30 11:37:34;;;;;;;5.35;1.50;;;11.80;54.80;;;;;;5043440;28;20048;-45
2022/12/30 11:40:26;;;;;;;5.18;1.10;;;11.80;54.70;;;;;;5043573;28;20060;-43
2022/12/30 11:43:13;;;;;;;7.53;1.05;;;11.80;54.60;;;;;;5045036;28;20075;-48
2022/12/30 11:46:03;;;;;;;7.32;1.30;;;11.80;54.60;;;;;;5043825;28;20057;-47
2022/12/30 11:48:33;;;;;;;6.35;1.63;;;11.90;54.70;;;;;;5035445;28;20430;-45
2022/12/30 11:51:02;;;;;;;6.85;1.35;;;11.90;54.60;;;;;;5044660;28;20064;-44
2022/12/30 11:53:35;;;;;;;6.05;1.63;;;11.90;54.60;;;;;;5042590;28;20421;-49
2022/12/30 11:56:03;;;;;;;8.23;1.73;;;11.90;54.60;;;;;;5042499;28;20053;-44
2022/12/30 11:58:34;;;;;;;6.70;1.45;;;11.90;54.60;;;;;;5043101;28;20183;-43
2022/12/30 12:01:04;;;;;;;13.75;1.58;;;11.90;54.50;;;;;;5043816;28;20053;-44
2022/12/30 12:03:32;;;;;;;7.82;1.23;;;11.90;54.50;;;;;;5043398;28;20049;-43
2022/12/30 12:06:08;;;;;;;7.15;1.48;;;11.90;54.40;;;;;;5045910;28;20061;-43
2022/12/30 12:08:43;;;;;;;6.05;1.05;;;11.90;54.30;;;;;;5043081;28;20053;-46
2022/12/30 12:11:16;;;;;;;6.07;1.00;;;11.90;54.40;;;;;;5044588;28;20057;-47
2022/12/30 12:13:52;;;;;;;4.95;1.63;;;11.90;54.50;;;;;;5044562;28;20049;-46
2022/12/30 12:16:32;;;;;;;5.25;1.92;;;11.90;54.50;;;;;;5043413;28;20060;-42
2022/12/30 12:19:10;;;;;;;7.05;1.25;;;11.90;54.50;;;;;;5043672;28;20897;-43
2022/12/30 12:21:40;;;;;;;6.30;1.77;;;12.00;54.40;;;;;;5043996;28;20057;-43
2022/12/30 12:24:16;;;;;;;6.80;1.30;;;11.90;54.40;;;;;;5042695;28;20401;-46
2022/12/30 12:26:49;;;;;;;4.90;1.30;;;11.90;54.40;;;;;;5042851;28;20064;-43
2022/12/30 12:29:17;;;;;;;6.68;1.17;;;11.90;54.40;;;;;;5043448;28;20049;-46
2022/12/30 12:32:24;;;;;;;5.10;1.27;;;11.90;54.40;;;;;;5042444;28;20060;-47
2022/12/30 12:35:03;;;;;;;7.38;1.33;;;11.90;54.40;;;;;;5042462;28;20053;-44
2022/12/30 12:37:43;;;;;;;7.25;1.70;;;11.90;54.40;;;;;;5043502;28;20068;-43
2022/12/30 12:40:48;;;;;;;6.38;1.55;;;11.90;54.40;;;;;;5042020;28;20520;-43
2022/12/30 12:43:18;;;;;;;5.40;1.13;;;11.90;54.40;;;;;;5043933;28;20052;-42
2022/12/30 12:46:00;;;;;;;7.63;1.33;;;11.90;54.50;;;;;;5041721;28;20056;-44
2022/12/30 12:48:41;;;;;;;4.45;1.38;;;12.00;54.50;;;;;;5042887;28;20057;-46
2022/12/30 12:51:24;;;;;;;4.07;0.90;;;11.90;54.50;;;;;;5043663;28;20057;-44
2022/12/30 12:54:23;;;;;;;6.85;1.30;;;11.90;54.50;;;;;;5040652;28;20417;-44
2022/12/30 12:57:01;;;;;;;5.85;1.15;;;11.90;54.60;;;;;;5042692;28;20060;-46
2022/12/30 12:59:45;;;;;;;6.07;1.10;;;11.90;54.50;;;;;;5042578;28;20060;-44
2022/12/30 13:02:28;;;;;;;7.90;1.35;;;11.90;54.50;;;;;;5042972;28;20083;-42
2022/12/30 13:05:07;;;;;;;6.28;1.13;;;11.90;54.50;;;;;;5042415;28;20527;-45
2022/12/30 13:07:46;;;;;;;8.65;1.60;;;12.00;54.50;;;;;;5042922;28;20056;-45
2022/12/30 13:10:29;;;;;;;5.45;1.20;;;12.00;54.60;;;;;;5039586;28;20045;-43
2022/12/30 13:13:05;;;;;;;4.95;1.27;;;12.00;54.60;;;;;;5042408;28;20056;-44
2022/12/30 13:15:38;;;;;;;7.22;1.52;;;12.00;54.50;;;;;;5040628;28;20416;-42
2022/12/30 13:18:09;;;;;;;4.90;1.15;;;12.00;54.50;;;;;;5043039;28;20076;-44
2022/12/30 13:20:45;;;;;;;4.25;1.00;;;12.00;54.50;;;;;;5043259;28;20055;-43
2022/12/30 13:23:15;;;;;;;5.85;1.20;;;12.00;54.50;;;;;;5042548;28;20068;-43
2022/12/30 13:25:47;;;;;;;4.60;1.23;;;12.00;54.40;;;;;;5042506;28;20060;-43
2022/12/30 13:28:21;;;;;;;7.15;1.15;;;12.00;54.40;;;;;;5043616;28;20115;-44
2022/12/30 13:31:04;;;;;;;7.80;1.40;;;12.00;54.40;;;;;;5040854;28;20053;-45
2022/12/30 13:33:41;;;;;;;2.92;0.63;;;12.00;54.40;;;;;;5043243;28;20057;-45
2022/12/30 13:36:14;;;;;;;4.80;1.10;;;12.10;54.50;;;;;;5043598;28;20071;-46
2022/12/30 13:38:55;;;;;;;3.70;0.75;;;12.10;54.50;;;;;;5040802;28;20068;-45
2022/12/30 13:41:46;;;;;;;6.85;1.10;;;12.10;54.40;;;;;;5043181;28;20065;-43
2022/12/30 13:44:17;;;;;;;5.22;1.08;;;12.10;54.30;;;;;;5041472;28;20048;-42
2022/12/30 13:46:49;;;;;;;6.50;1.20;;;12.10;54.40;;;;;;5038742;28;20057;-45
2022/12/30 13:49:25;;;;;;;4.80;1.13;;;12.10;54.50;;;;;;5041639;28;20423;-43
2022/12/30 13:51:58;;;;;;;7.43;1.15;;;12.10;54.50;;;;;;5041135;28;20064;-44
2022/12/30 13:54:26;;;;;;;7.37;1.47;;;12.10;54.50;;;;;;5040621;28;20057;-43
2022/12/30 13:56:55;;;;;;;7.20;1.40;;;12.10;54.50;;;;;;5037952;28;20049;-48